createdAt,value
2022-08-17T00:03:19.467Z,98903.13
2022-08-17T00:08:12.909Z,98903.44
2022-08-17T00:13:18.582Z,98912.72
2022-08-17T00:19:00.979Z,98913.00
2022-08-17T00:23:23.469Z,98913.25
2022-08-17T00:28:16.283Z,98915.47
2022-08-17T00:33:16.401Z,98922.00
2022-08-17T00:38:12.467Z,98910.25
2022-08-17T00:43:21.117Z,98916.81
2022-08-17T00:48:23.814Z,98912.72
2022-08-17T00:53:22.434Z,98918.75
2022-08-17T00:58:15.115Z,98923.09
2022-08-17T01:03:11.919Z,98930.50
2022-08-17T01:08:13.217Z,98929.94
2022-08-17T01:13:05.195Z,98930.25
2022-08-17T01:17:57.120Z,98930.50
2022-08-17T01:22:49.182Z,98932.09
2022-08-17T01:27:42.346Z,98926.34
2022-08-17T01:32:34.142Z,98933.75
2022-08-17T01:37:38.507Z,98926.91
2022-08-17T01:42:36.073Z,98938.38
2022-08-17T01:47:28.065Z,98926.91
2022-08-17T01:52:23.918Z,98926.38
2022-08-17T01:57:15.832Z,98935.09
2022-08-17T02:02:07.760Z,98935.38
2022-08-17T02:06:59.643Z,98937.53
2022-08-17T02:11:52.600Z,98934.53
2022-08-17T02:16:45.885Z,98934.53
2022-08-17T02:21:39.686Z,98943.28
2022-08-17T02:26:32.226Z,98950.09
2022-08-17T02:31:24.029Z,98955.28
2022-08-17T02:36:15.791Z,98959.09
2022-08-17T02:41:07.762Z,98948.69
2022-08-17T02:45:59.426Z,98947.59
2022-08-17T02:50:51.095Z,98959.63
2022-08-17T02:55:43.529Z,98953.91
2022-08-17T03:00:41.163Z,98943.50
2022-08-17T03:05:36.224Z,98946.78
2022-08-17T03:10:28.203Z,98951.94
2022-08-17T03:15:26.262Z,98954.13
2022-08-17T03:20:19.392Z,98948.38
2022-08-17T03:25:15.944Z,98959.00
2022-08-17T03:30:13.645Z,98956.78
2022-08-17T03:35:08.323Z,98965.25
2022-08-17T03:40:00.324Z,98960.84
2022-08-17T03:44:57.772Z,98965.78
2022-08-17T03:50:07.834Z,98980.78
2022-08-17T03:55:20.682Z,98985.44
2022-08-17T04:00:34.887Z,98990.34
2022-08-17T04:05:31.334Z,98991.41
2022-08-17T04:10:26.783Z,98998.81
2022-08-17T04:15:19.009Z,99004.25
2022-08-17T04:20:12.747Z,99006.41
2022-08-17T04:25:16.576Z,99011.63
2022-08-17T04:30:08.989Z,99013.50
2022-08-17T04:35:00.886Z,99021.69
2022-08-17T04:40:12.711Z,99019.50
2022-08-17T04:45:05.019Z,99032.31
2022-08-17T04:49:56.706Z,99026.84
2022-08-17T04:54:48.384Z,99033.16
2022-08-17T04:59:40.128Z,99040.22
2022-08-17T05:04:34.803Z,99046.53
2022-08-17T05:09:26.978Z,99042.44
2022-08-17T05:14:18.655Z,99040.81
2022-08-17T05:19:10.297Z,99045.44
2022-08-17T05:24:16.747Z,99046.28
2022-08-17T05:29:15.605Z,99053.63
2022-08-17T05:34:07.387Z,99050.34
2022-08-17T05:38:59.009Z,99058.00
2022-08-17T05:43:56.084Z,99055.28
2022-08-17T05:48:57.732Z,99053.63
2022-08-17T05:54:25.357Z,99058.56
2022-08-17T06:00:03.214Z,99060.78
2022-08-17T06:05:06.560Z,99065.41
2022-08-17T06:10:10.977Z,99063.50
2022-08-17T06:15:19.576Z,99050.38
2022-08-17T06:20:14.737Z,99072.53
2022-08-17T06:25:13.510Z,99069.53
2022-08-17T06:30:10.710Z,99064.06
2022-08-17T06:35:03.412Z,99069.53
2022-08-17T06:40:21.838Z,99086.47
2022-08-17T06:45:31.761Z,99077.50
2022-08-17T06:50:37.769Z,99093.06
2022-08-17T06:55:38.302Z,99094.16
2022-08-17T07:00:37.868Z,99100.16
2022-08-17T07:05:40.138Z,99111.59
2022-08-17T07:10:44.873Z,99113.25
2022-08-17T07:15:43.085Z,99103.91
2022-08-17T07:20:35.986Z,99128.19
2022-08-17T07:25:30.763Z,99121.09
2022-08-17T07:30:28.443Z,99137.47
2022-08-17T07:35:37.679Z,99140.47
2022-08-17T07:40:39.958Z,99148.66
2022-08-17T07:45:51.569Z,99158.75
2022-08-17T07:50:43.474Z,99163.44
2022-08-17T07:55:41.880Z,99166.19
2022-08-17T08:00:33.812Z,99174.41
2022-08-17T08:05:49.140Z,99178.78
2022-08-17T08:10:45.586Z,99184.81
2022-08-17T08:15:45.134Z,99192.22
2022-08-17T08:20:54.035Z,99189.97
2022-08-17T08:26:01.933Z,99203.38
2022-08-17T08:31:03.530Z,99201.41
2022-08-17T08:36:13.428Z,99202.75
2022-08-17T08:41:43.303Z,99218.34
2022-08-17T08:46:50.204Z,99207.53
2022-08-17T08:51:46.482Z,99221.75
2022-08-17T08:57:19.214Z,99220.69
2022-08-17T09:02:07.151Z,99239.13
2022-08-17T09:07:04.766Z,99228.63
2022-08-17T09:12:14.054Z,99230.41
2022-08-17T09:17:16.418Z,99233.81
2022-08-17T09:22:22.402Z,99231.16
2022-08-17T09:27:19.713Z,99238.56
2022-08-17T09:32:52.091Z,99238.88
2022-08-17T09:38:07.647Z,99240.50
2022-08-17T09:42:59.467Z,99256.94
2022-08-17T09:47:57.506Z,99258.84
2022-08-17T09:52:53.986Z,99258.84
2022-08-17T09:57:51.735Z,99259.66
2022-08-17T10:02:58.827Z,99250.09
2022-08-17T10:08:11.067Z,99249.31
2022-08-17T10:13:19.245Z,99249.63
2022-08-17T10:18:12.372Z,99258.19
2022-08-17T10:23:36.184Z,99266.44
2022-08-17T10:28:36.863Z,99259.41
2022-08-17T10:33:51.006Z,99272.03
2022-08-17T10:39:04.514Z,99272.34
2022-08-17T10:44:40.898Z,99266.84
2022-08-17T10:49:30.377Z,99266.59
2022-08-17T10:54:24.732Z,99257.28
2022-08-17T10:59:51.271Z,99267.94
2022-08-17T11:04:47.889Z,99275.06
2022-08-17T11:10:08.487Z,99294.25
2022-08-17T11:15:31.994Z,99293.97
2022-08-17T11:20:51.016Z,99293.66
2022-08-17T11:25:51.121Z,99301.09
2022-08-17T11:30:48.977Z,99301.34
2022-08-17T11:35:51.293Z,99321.34
2022-08-17T11:40:44.549Z,99317.78
2022-08-17T11:45:57.335Z,99316.94
2022-08-17T11:51:17.511Z,99317.41
2022-08-17T11:56:48.017Z,99317.22
2022-08-17T12:01:58.137Z,99315.81
2022-08-17T12:06:57.527Z,99307.38
2022-08-17T12:12:12.781Z,99307.66
2022-08-17T12:17:09.314Z,99309.59
2022-08-17T12:22:22.284Z,99304.16
2022-08-17T12:27:46.186Z,99306.91
2022-08-17T12:32:39.483Z,99298.38
2022-08-17T12:37:33.828Z,99304.97
2022-08-17T12:42:29.936Z,99306.88
2022-08-17T12:47:23.155Z,99299.19
2022-08-17T12:52:23.712Z,99284.66
2022-08-17T12:57:37.278Z,99279.72
2022-08-17T13:02:37.786Z,99284.34
2022-08-17T13:07:44.690Z,99281.81
2022-08-17T13:12:36.622Z,99272.97
2022-08-17T13:17:32.504Z,99277.88
2022-08-17T13:22:27.214Z,99270.47
2022-08-17T13:27:21.722Z,99269.66
2022-08-17T13:32:33.484Z,99270.19
2022-08-17T13:37:30.234Z,99274.31
2022-08-17T13:42:52.407Z,99278.75
2022-08-17T13:47:44.928Z,99284.81
2022-08-17T13:52:43.121Z,99281.56
2022-08-17T13:57:36.250Z,99293.97
2022-08-17T14:02:28.730Z,99290.41
2022-08-17T14:07:27.370Z,99275.34
2022-08-17T14:12:22.557Z,99275.88
2022-08-17T14:17:14.184Z,99284.09
2022-08-17T14:22:09.098Z,99284.09
2022-08-17T14:27:03.432Z,99280.81
2022-08-17T14:31:56.344Z,99287.16
2022-08-17T14:36:48.841Z,99290.97
2022-08-17T14:41:41.972Z,99287.97
2022-08-17T14:46:33.675Z,99291.00
2022-08-17T14:51:28.620Z,99289.88
2022-08-17T14:56:20.635Z,99286.00
2022-08-17T15:01:14.042Z,99280.81
2022-08-17T15:06:05.852Z,99287.69
2022-08-17T15:10:57.556Z,99291.53
2022-08-17T15:15:49.766Z,99294.84
2022-08-17T15:20:42.897Z,99295.91
2022-08-17T15:25:34.565Z,99299.75
2022-08-17T15:30:26.609Z,99295.91
2022-08-17T15:35:18.836Z,99289.31
2022-08-17T15:40:13.940Z,99294.25
2022-08-17T15:45:08.920Z,99293.72
2022-08-17T15:50:00.686Z,99301.66
2022-08-17T15:54:56.999Z,99294.25
2022-08-17T15:59:52.102Z,99295.06
2022-08-17T16:04:50.073Z,99286.53
2022-08-17T16:09:44.466Z,99298.09
2022-08-17T16:14:37.043Z,99294.22
2022-08-17T16:19:29.288Z,99293.69
2022-08-17T16:24:21.057Z,99293.41
2022-08-17T16:29:12.783Z,99297.25
2022-08-17T16:34:17.945Z,99295.59
2022-08-17T16:39:10.353Z,99299.19
2022-08-17T16:44:02.759Z,99300.00
2022-08-17T16:48:54.365Z,99297.53
2022-08-17T16:53:45.962Z,99304.38
2022-08-17T16:58:50.198Z,99303.03
2022-08-17T17:03:44.083Z,99304.13
2022-08-17T17:08:50.736Z,99307.13
2022-08-17T17:14:02.182Z,99309.06
2022-08-17T17:19:18.009Z,99303.03
2022-08-17T17:25:01.302Z,99308.22
2022-08-17T17:30:07.586Z,99307.41
2022-08-17T17:35:07.117Z,99306.03
2022-08-17T17:40:05.337Z,99303.56
2022-08-17T17:45:18.673Z,99304.13
2022-08-17T17:50:10.854Z,99306.88
2022-08-17T17:55:23.096Z,99300.88
2022-08-17T18:00:39.201Z,99300.03
2022-08-17T18:05:37.297Z,99313.47
2022-08-17T18:10:44.450Z,99315.97
2022-08-17T18:15:43.416Z,99309.63
2022-08-17T18:20:43.263Z,99306.63
2022-08-17T18:25:52.011Z,99310.19
2022-08-17T18:30:43.701Z,99318.72
2022-08-17T18:35:35.677Z,99313.47
2022-08-17T18:40:31.882Z,99314.56
2022-08-17T18:45:38.642Z,99309.63
2022-08-17T18:50:41.472Z,99321.69
2022-08-17T18:55:34.171Z,99329.09
2022-08-17T19:00:47.486Z,99327.19
2022-08-17T19:05:44.482Z,99333.75
2022-08-17T19:10:46.228Z,99334.03
2022-08-17T19:16:11.594Z,99336.53
2022-08-17T19:21:19.946Z,99326.38
2022-08-17T19:26:53.776Z,99335.16
2022-08-17T19:31:40.758Z,99340.06
2022-08-17T19:36:50.671Z,99340.06
2022-08-17T19:42:00.734Z,99336.78
2022-08-17T19:47:30.483Z,99339.25
2022-08-17T19:53:02.092Z,99339.25
2022-08-17T19:58:17.780Z,99317.03
2022-08-17T20:03:35.402Z,99331.28
2022-08-17T20:08:34.513Z,99332.09
2022-08-17T20:13:49.869Z,99342.50
2022-08-17T20:19:07.917Z,99328.78
2022-08-17T20:24:25.841Z,99330.16
2022-08-17T20:29:17.424Z,99321.38
2022-08-17T20:34:31.009Z,99315.34
2022-08-17T20:39:49.194Z,99330.41
2022-08-17T20:44:42.842Z,99329.03
2022-08-17T20:49:44.770Z,99333.41
2022-08-17T20:54:46.144Z,99321.34
2022-08-17T20:59:43.558Z,99322.97
2022-08-17T21:04:42.902Z,99322.34
2022-08-17T21:09:34.622Z,99331.84
2022-08-17T21:15:08.049Z,99322.22
2022-08-17T21:20:22.776Z,99324.09
2022-08-17T21:25:32.606Z,99329.81
2022-08-17T21:30:30.338Z,99327.81
2022-08-17T21:35:28.933Z,99331.59
2022-08-17T21:40:29.838Z,99339.19
2022-08-17T21:45:41.759Z,99333.94
2022-08-17T21:50:35.660Z,99330.59
2022-08-17T21:55:29.961Z,99319.56
2022-08-17T22:00:30.857Z,99322.75
2022-08-17T22:05:51.478Z,99328.72
2022-08-17T22:10:48.452Z,99334.69
2022-08-17T22:15:43.772Z,99333.88
2022-08-17T22:20:35.529Z,99333.28
2022-08-17T22:25:31.013Z,99334.41
2022-08-17T22:30:34.758Z,99337.91
2022-08-17T22:35:29.378Z,99345.78
2022-08-17T22:40:33.594Z,99357.81
2022-08-17T22:45:29.790Z,99357.22
2022-08-17T22:50:25.403Z,99356.13
2022-08-17T22:55:36.542Z,99357.44
2022-08-17T23:00:41.701Z,99361.22
2022-08-17T23:05:34.178Z,99359.00
2022-08-17T23:10:28.350Z,99361.72
2022-08-17T23:15:20.125Z,99363.66
2022-08-17T23:20:14.048Z,99351.63
2022-08-17T23:25:06.271Z,99353.28
2022-08-17T23:29:58.466Z,99347.81
2022-08-17T23:34:50.927Z,99347.00
2022-08-17T23:39:45.065Z,99340.69
2022-08-17T23:44:39.227Z,99332.50
2022-08-17T23:49:32.224Z,99336.31
2022-08-17T23:54:34.989Z,99343.41
2022-08-17T23:59:27.638Z,99331.94
